Säätilassa ei varoituksia.

Lähimmät METAR asemat

 

EFPO - Pori (mil/Civ), Finland
Distance from station: PLU 42km
Päivitetty: 20/01/2021 06:20
Selkeätä
Selkeätä
 Wind from EKA
Tuuli: EKA 13 km/h
Lämpötila: -2°C
Wind Chill: -7°C
Kastepiste: -4°C
Kosteus: 86%
Ilmanpaine: 1008 hPa
Yhteenveto: Selkeätä
Visibility: greater than 10 km
2021/01/20 04:20 EFPO 200420Z AUTO 15007KT CAVOK M02/M04 Q1008
EFTU - Turku/Abo, Finland
Distance from station: E 68km
Päivitetty: 20/01/2021 06:20
Enimmäkseen pilvistä
Enimmäkseen pilvistä
 Wind from KA
Tuuli: KA 11 km/h
Lämpötila: -3°C
Wind Chill: -7°C
Kastepiste: -5°C
Kosteus: 86%
Ilmanpaine: 1008 hPa
Clouds: Enimmäkseen pilvistä
Visibility: 10 km
Cloud details: Enimmäkseen pilvistä 518 m
2021/01/20 04:20 EFTU 200420Z AUTO 13006KT 100V160 9999 BKN017 M03/M05 Q1008
 
EFTP - Tampere/Pirkkala, Finland
Distance from station: IKO 84km
Päivitetty: 20/01/2021 06:20
Few Clouds
Few Clouds
 Wind from E
Tuuli: E 7 km/h
Lämpötila: -3°C
Wind Chill: -6°C
Kastepiste: -4°C
Kosteus: 93%
Ilmanpaine: 1009 hPa
Clouds: Few Clouds
Visibility: 10 km
Cloud details: Few Clouds 213 m
2021/01/20 04:20 EFTP 200420Z AUTO 18004KT 9999 FEW007 M03/M04 Q1009